Time;durP1;ratioP1;P1;durP2;ratioP2;P2;SDS_P1;SDS_P2;PMS_P1;PMS_P2;Temp;Humidity;BMP_temperature;BMP_pressure;BME280_temperature;BME280_humidity;BME280_pressure;Samples;Min_cycle;Max_cycle;Signal;HPM_P1;HPM_P2
2023/01/20 00:01:45;;;;;;;7.57;2.55;;;0.50;99.90;;;;;;5090686;28;20454;-84
2023/01/20 00:04:11;;;;;;;6.22;2.20;;;0.50;99.90;;;;;;5074963;28;20432;-84
2023/01/20 00:06:37;;;;;;;10.20;2.83;;;1.00;99.90;;;;;;5060559;28;20436;-85
2023/01/20 00:09:04;;;;;;;10.48;3.00;;;0.50;99.90;;;;;;5077239;28;20039;-84
2023/01/20 00:11:30;;;;;;;7.72;2.70;;;0.50;99.90;;;;;;5063242;28;20035;-85
2023/01/20 00:13:57;;;;;;;8.82;2.58;;;0.40;99.90;;;;;;5080925;28;20508;-85
2023/01/20 00:16:24;;;;;;;7.43;2.40;;;0.40;99.90;;;;;;5074615;28;20036;-85
2023/01/20 00:18:50;;;;;;;7.80;2.90;;;0.40;99.90;;;;;;5067414;28;20473;-85
2023/01/20 00:21:16;;;;;;;9.25;2.78;;;0.90;99.90;;;;;;5060807;28;20051;-85
2023/01/20 00:23:43;;;;;;;8.48;2.90;;;0.40;99.90;;;;;;5082186;28;20067;-85
2023/01/20 00:26:15;;;;;;;8.20;3.00;;;0.40;99.90;;;;;;5081987;28;20044;-85
2023/01/20 00:28:41;;;;;;;6.50;2.50;;;0.40;99.90;;;;;;5074901;28;20484;-85
2023/01/20 00:31:19;;;;;;;10.73;3.13;;;0.40;99.90;;;;;;5093607;28;20097;-85
2023/01/20 00:33:46;;;;;;;9.27;3.00;;;0.30;99.90;;;;;;5094855;28;20059;-86
2023/01/20 00:36:13;;;;;;;10.52;3.00;;;0.40;99.90;;;;;;5079826;28;20320;-86
2023/01/20 00:38:39;;;;;;;9.90;3.17;;;0.40;99.90;;;;;;5080398;28;20250;-86
2023/01/20 00:41:05;;;;;;;9.40;3.05;;;0.30;99.90;;;;;;5068730;28;20270;-85
2023/01/20 00:43:31;;;;;;;7.93;3.00;;;1.80;99.90;;;;;;5080669;28;20032;-85
2023/01/20 00:45:57;;;;;;;9.23;3.22;;;0.30;99.90;;;;;;5075919;28;20597;-85
2023/01/20 00:48:23;;;;;;;10.32;3.55;;;0.30;99.90;;;;;;5069402;28;20229;-85
2023/01/20 00:50:48;;;;;;;8.50;3.38;;;0.80;99.90;;;;;;5077577;28;20032;-84
2023/01/20 00:53:14;;;;;;;9.02;3.67;;;0.30;99.90;;;;;;5070054;28;20056;-84
2023/01/20 00:55:40;;;;;;;9.50;4.20;;;0.30;99.90;;;;;;5096302;28;20473;-85
2023/01/20 00:58:05;;;;;;;10.63;4.00;;;0.30;99.90;;;;;;5087916;28;20040;-85
2023/01/20 01:00:31;;;;;;;10.35;4.53;;;0.30;99.90;;;;;;5065706;28;20034;-86
2023/01/20 01:02:57;;;;;;;10.10;4.50;;;0.30;99.90;;;;;;5068255;28;20051;-85
2023/01/20 01:05:23;;;;;;;9.30;3.97;;;0.30;99.90;;;;;;5067179;28;20040;-86
2023/01/20 01:07:49;;;;;;;10.82;4.57;;;1.70;99.90;;;;;;5085466;28;20040;-84
2023/01/20 01:10:15;;;;;;;12.75;4.78;;;0.20;99.90;;;;;;5060349;28;20141;-84
2023/01/20 01:12:40;;;;;;;9.95;4.80;;;0.30;99.90;;;;;;5053397;28;20035;-85
2023/01/20 01:15:07;;;;;;;10.88;5.20;;;0.20;99.90;;;;;;5092101;28;20125;-84
2023/01/20 01:17:32;;;;;;;10.80;5.00;;;0.30;99.90;;;;;;5096406;28;20070;-84
2023/01/20 01:19:58;;;;;;;11.40;5.38;;;0.20;99.90;;;;;;5080348;28;20464;-84
2023/01/20 01:22:24;;;;;;;11.43;5.05;;;2.20;99.90;;;;;;5070116;28;20126;-85
2023/01/20 01:24:49;;;;;;;11.82;5.47;;;0.20;99.90;;;;;;5056350;28;20071;-85
2023/01/20 01:27:15;;;;;;;10.98;5.68;;;0.20;99.90;;;;;;5067007;28;20419;-84
2023/01/20 01:29:41;;;;;;;12.50;5.28;;;1.40;99.90;;;;;;5058848;28;20039;-85
2023/01/20 01:32:07;;;;;;;10.40;4.93;;;1.60;99.90;;;;;;5083832;28;20050;-84
2023/01/20 01:34:33;;;;;;;10.73;4.78;;;1.40;99.90;;;;;;5077863;28;20162;-84
2023/01/20 01:36:59;;;;;;;11.90;5.20;;;0.20;99.90;;;;;;5084949;28;20486;-85
2023/01/20 01:39:24;;;;;;;10.23;4.97;;;0.20;99.90;;;;;;5068764;28;20036;-85
2023/01/20 01:41:50;;;;;;;11.48;5.32;;;0.20;99.90;;;;;;5099780;28;20036;-84
2023/01/20 01:44:16;;;;;;;11.93;5.45;;;0.20;99.90;;;;;;5074207;28;20043;-85
2023/01/20 01:46:42;;;;;;;11.15;5.60;;;0.30;99.90;;;;;;5052605;28;20073;-85
2023/01/20 01:49:23;;;;;;;12.32;5.85;;;0.20;99.90;;;;;;5080882;28;20035;-84
2023/01/20 01:52:00;;;;;;;12.32;6.05;;;0.20;99.90;;;;;;5098583;28;20032;-85
2023/01/20 01:54:33;;;;;;;16.13;6.50;;;0.30;99.90;;;;;;5074564;28;20825;-84
2023/01/20 01:56:59;;;;;;;15.75;6.97;;;0.30;99.90;;;;;;5094960;28;20227;-85
2023/01/20 01:59:25;;;;;;;14.05;7.22;;;0.30;99.90;;;;;;5051820;28;20044;-84
2023/01/20 02:01:53;;;;;;;15.90;6.47;;;0.40;99.90;;;;;;5065821;28;20138;-85
2023/01/20 02:04:22;;;;;;;12.20;6.63;;;1.70;99.90;;;;;;5081714;28;20059;-85
2023/01/20 02:07:07;;;;;;;13.40;6.72;;;0.40;99.90;;;;;;5079890;28;20086;-86
2023/01/20 02:09:33;;;;;;;15.63;7.00;;;0.40;99.90;;;;;;5075396;28;20046;-86
2023/01/20 02:12:07;;;;;;;14.50;7.07;;;0.40;99.90;;;;;;5068212;28;20035;-85
2023/01/20 02:14:38;;;;;;;13.18;6.53;;;0.50;99.90;;;;;;5095040;28;20093;-86
2023/01/20 02:17:25;;;;;;;17.00;8.73;;;0.40;99.90;;;;;;5074968;28;20040;-85
2023/01/20 02:20:25;;;;;;;14.52;8.05;;;0.40;99.90;;;;;;5096804;28;20063;-85
2023/01/20 02:23:06;;;;;;;20.55;9.15;;;0.50;99.90;;;;;;5083642;28;20039;-85
2023/01/20 02:25:44;;;;;;;16.58;8.77;;;0.50;99.90;;;;;;5080702;28;20044;-85
2023/01/20 02:28:38;;;;;;;20.75;9.45;;;0.50;99.90;;;;;;5097966;28;20050;-86
2023/01/20 02:31:22;;;;;;;;;;;0.50;99.90;;;;;;5076683;28;20039;-86
2023/01/20 02:33:54;;;;;;;19.05;8.77;;;0.50;99.90;;;;;;5098168;28;19912;-85
2023/01/20 02:36:40;;;;;;;15.70;8.53;;;0.50;99.90;;;;;;5071460;28;20039;-85
2023/01/20 02:39:16;;;;;;;19.15;8.98;;;0.50;99.90;;;;;;5094841;28;20058;-85
2023/01/20 02:41:55;;;;;;;16.73;9.13;;;0.50;99.90;;;;;;5069858;28;20158;-84
2023/01/20 02:44:35;;;;;;;17.75;9.20;;;0.60;99.90;;;;;;5085555;28;20054;-86
2023/01/20 02:47:29;;;;;;;17.15;9.30;;;0.60;99.90;;;;;;5075644;28;20047;-84
2023/01/20 02:50:07;;;;;;;17.83;9.50;;;0.60;99.90;;;;;;5075723;28;20046;-86
2023/01/20 02:52:41;;;;;;;19.58;9.80;;;0.60;99.90;;;;;;5097525;28;20036;-85
2023/01/20 02:55:10;;;;;;;19.77;10.30;;;0.60;99.90;;;;;;5074663;28;20047;-86
2023/01/20 02:57:43;;;;;;;20.35;10.05;;;0.70;99.90;;;;;;5067882;28;20050;-85
2023/01/20 03:00:22;;;;;;;17.95;9.70;;;0.00;99.90;;;;;;5074411;28;20036;-85
2023/01/20 03:02:51;;;;;;;17.98;9.70;;;0.70;99.90;;;;;;5079768;28;20036;-85
2023/01/20 03:05:22;;;;;;;19.83;9.93;;;0.70;99.90;;;;;;5080141;28;20042;-85
2023/01/20 03:07:49;;;;;;;19.33;10.57;;;0.80;99.90;;;;;;5095054;28;20032;-85
2023/01/20 03:10:19;;;;;;;20.05;10.50;;;0.70;99.90;;;;;;5096840;28;20114;-86
2023/01/20 03:12:55;;;;;;;18.13;9.70;;;0.80;99.90;;;;;;5077695;28;20051;-85
2023/01/20 03:15:26;;;;;;;19.63;10.43;;;0.80;99.90;;;;;;5082938;28;20028;-86
2023/01/20 03:17:52;;;;;;;18.33;10.05;;;1.10;99.90;;;;;;5076265;28;20048;-86
2023/01/20 03:20:18;;;;;;;18.45;10.38;;;0.80;99.90;;;;;;5069621;28;20038;-85
2023/01/20 03:22:43;;;;;;;19.63;10.60;;;0.80;99.90;;;;;;5077535;28;20480;-86
2023/01/20 03:25:12;;;;;;;18.77;10.43;;;0.80;99.90;;;;;;5097143;28;20036;-85
2023/01/20 03:27:37;;;;;;;18.65;10.48;;;1.40;99.90;;;;;;5090932;28;20032;-85
2023/01/20 03:30:11;;;;;;;18.88;10.57;;;0.80;99.90;;;;;;5061415;28;20035;-86
2023/01/20 03:32:38;;;;;;;20.58;10.38;;;0.80;99.90;;;;;;5073086;28;20028;-86
2023/01/20 03:35:04;;;;;;;22.30;11.23;;;0.80;99.90;;;;;;5062005;28;20039;-85
2023/01/20 03:37:30;;;;;;;18.15;10.57;;;0.90;99.90;;;;;;5085240;28;20042;-85
2023/01/20 03:39:56;;;;;;;21.67;11.98;;;0.60;99.90;;;;;;5081706;28;20040;-85
2023/01/20 03:42:40;;;;;;;22.70;11.85;;;0.90;99.90;;;;;;5050970;28;20044;-86
2023/01/20 03:45:35;;;;;;;21.48;12.35;;;0.90;99.90;;;;;;5100966;28;20073;-85
2023/01/20 03:48:20;;;;;;;21.17;11.65;;;0.90;99.90;;;;;;5071272;28;20143;-85
2023/01/20 03:51:32;;;;;;;21.40;12.13;;;0.90;99.90;;;;;;5080726;28;20127;-85
2023/01/20 03:54:03;;;;;;;23.45;12.18;;;0.90;99.90;;;;;;5073122;28;20052;-86
2023/01/20 03:56:41;;;;;;;21.50;11.75;;;0.90;99.90;;;;;;5026651;28;20037;-84
2023/01/20 03:59:10;;;;;;;18.92;10.98;;;0.90;99.90;;;;;;5071971;28;20458;-84
2023/01/20 04:01:39;;;;;;;21.45;12.18;;;0.90;99.90;;;;;;5089954;28;20114;-85
2023/01/20 04:04:10;;;;;;;24.95;13.73;;;0.90;99.90;;;;;;5076071;28;20044;-85
2023/01/20 04:06:39;;;;;;;25.98;13.88;;;1.90;99.90;;;;;;5072237;28;20353;-85
2023/01/20 04:09:09;;;;;;;22.05;12.88;;;0.90;99.90;;;;;;5098378;28;20114;-86
2023/01/20 04:11:35;;;;;;;23.75;12.32;;;1.80;99.90;;;;;;5076271;28;20043;-86
2023/01/20 04:14:01;;;;;;;23.80;12.75;;;0.90;99.90;;;;;;5057541;28;20051;-86
2023/01/20 04:16:27;;;;;;;24.63;13.05;;;0.90;99.90;;;;;;5095107;28;20051;-86
2023/01/20 04:18:53;;;;;;;24.27;12.50;;;0.90;99.90;;;;;;5082767;28;20634;-86
2023/01/20 04:21:32;;;;;;;24.42;13.60;;;0.90;99.90;;;;;;5069915;28;20492;-86
2023/01/20 04:24:11;;;;;;;26.00;13.93;;;0.90;99.90;;;;;;5098108;28;20161;-86
2023/01/20 04:26:37;;;;;;;25.83;12.90;;;0.90;99.90;;;;;;5074828;28;20036;-85
2023/01/20 04:29:07;;;;;;;25.23;13.18;;;0.80;99.90;;;;;;5053425;28;20043;-86
2023/01/20 04:31:36;;;;;;;26.45;13.23;;;1.90;99.90;;;;;;5078729;28;20036;-85
2023/01/20 04:34:05;;;;;;;25.83;13.20;;;0.80;99.90;;;;;;5082711;28;20043;-84
2023/01/20 04:36:31;;;;;;;26.77;14.13;;;2.40;99.90;;;;;;5100387;28;20097;-86
2023/01/20 04:38:56;;;;;;;26.02;13.80;;;0.80;99.90;;;;;;5073652;28;20556;-85
2023/01/20 04:41:22;;;;;;;23.33;12.85;;;2.20;99.90;;;;;;5049758;28;20035;-84
2023/01/20 04:43:48;;;;;;;25.80;13.02;;;0.80;99.90;;;;;;5064895;28;20404;-86
2023/01/20 04:46:15;;;;;;;27.13;13.80;;;2.20;99.90;;;;;;5067506;28;20467;-85
2023/01/20 04:48:44;;;;;;;25.52;13.35;;;1.20;99.90;;;;;;5067463;28;20043;-85
2023/01/20 04:51:09;;;;;;;26.90;13.10;;;0.80;99.90;;;;;;5091231;28;20039;-85
2023/01/20 04:53:35;;;;;;;26.20;13.57;;;0.80;99.90;;;;;;5062449;28;20113;-85
2023/01/20 04:56:01;;;;;;;26.33;13.48;;;0.80;99.90;;;;;;5077295;28;20094;-87
2023/01/20 04:58:27;;;;;;;25.70;12.77;;;0.80;99.90;;;;;;5055307;28;20400;-86
2023/01/20 05:00:52;;;;;;;27.98;13.13;;;0.80;99.90;;;;;;5073625;28;20575;-84
2023/01/20 05:03:18;;;;;;;26.10;13.50;;;0.80;99.90;;;;;;5060595;28;20078;-85
2023/01/20 05:05:52;;;;;;;26.73;13.50;;;0.80;99.90;;;;;;5080037;28;20134;-87
2023/01/20 05:08:17;;;;;;;25.90;13.07;;;0.80;99.90;;;;;;5087497;28;20040;-85
2023/01/20 05:10:43;;;;;;;25.20;12.80;;;0.80;99.90;;;;;;5078723;28;20081;-86
2023/01/20 05:13:09;;;;;;;25.95;13.07;;;0.80;99.90;;;;;;5067486;28;20433;-85
2023/01/20 05:15:34;;;;;;;25.27;12.60;;;1.10;99.90;;;;;;5084336;28;20503;-86
2023/01/20 05:18:00;;;;;;;24.10;12.13;;;0.80;99.90;;;;;;5056220;28;20285;-84
2023/01/20 05:20:26;;;;;;;26.95;13.02;;;0.80;99.90;;;;;;5070403;28;20038;-86
2023/01/20 05:22:52;;;;;;;24.77;12.80;;;0.80;99.90;;;;;;5071365;28;20089;-86
2023/01/20 05:25:17;;;;;;;25.85;12.35;;;0.80;99.90;;;;;;5068965;28;20043;-86
2023/01/20 05:27:43;;;;;;;25.45;12.85;;;0.80;99.90;;;;;;5082219;28;20032;-86
2023/01/20 05:30:10;;;;;;;28.20;12.70;;;0.90;99.90;;;;;;5079914;28;20036;-85
2023/01/20 05:32:35;;;;;;;25.15;13.65;;;0.80;99.90;;;;;;5076042;28;20577;-85
2023/01/20 05:35:01;;;;;;;27.77;13.63;;;2.20;99.90;;;;;;5065731;28;20057;-85
2023/01/20 05:37:27;;;;;;;26.52;13.38;;;0.80;99.90;;;;;;5065435;28;20047;-85
2023/01/20 05:39:55;;;;;;;25.55;12.80;;;2.50;99.90;;;;;;5066876;28;20035;-86
2023/01/20 05:42:21;;;;;;;27.05;13.48;;;0.80;99.90;;;;;;5069372;28;20036;-85
2023/01/20 05:44:47;;;;;;;24.45;12.93;;;0.80;99.90;;;;;;5080182;28;20066;-87
2023/01/20 05:47:13;;;;;;;27.40;13.15;;;0.80;99.90;;;;;;5051343;28;20472;-86
2023/01/20 05:49:38;;;;;;;27.02;12.75;;;0.80;99.90;;;;;;5066879;28;20032;-85
2023/01/20 05:52:04;;;;;;;25.70;13.00;;;0.70;99.90;;;;;;5064766;28;20437;-85
2023/01/20 05:54:30;;;;;;;26.40;12.20;;;2.20;99.90;;;;;;5081266;28;21074;-85
2023/01/20 05:56:56;;;;;;;26.40;12.80;;;;;;;;;;5082368;28;20108;-85
2023/01/20 05:59:22;;;;;;;25.05;12.57;;;0.70;99.90;;;;;;5066910;28;20047;-85
2023/01/20 06:01:48;;;;;;;25.42;12.63;;;0.70;99.90;;;;;;5076038;28;20523;-84
2023/01/20 06:04:17;;;;;;;25.90;13.43;;;0.70;99.90;;;;;;5067351;28;20527;-85
2023/01/20 06:06:43;;;;;;;28.33;14.13;;;0.70;99.90;;;;;;5073197;28;20044;-85
2023/01/20 06:09:09;;;;;;;27.88;13.43;;;0.70;99.90;;;;;;5077475;28;20186;-85
2023/01/20 06:11:35;;;;;;;27.85;13.13;;;2.80;99.90;;;;;;5067226;28;20039;-85
2023/01/20 06:14:01;;;;;;;24.50;12.60;;;1.80;99.90;;;;;;5067865;28;20040;-85
2023/01/20 06:16:27;;;;;;;28.15;13.52;;;1.80;99.90;;;;;;5087958;28;20137;-85
2023/01/20 06:18:52;;;;;;;26.40;12.95;;;1.30;99.90;;;;;;5083478;28;20408;-86
2023/01/20 06:21:18;;;;;;;26.55;12.75;;;-0.40;99.90;;;;;;5072037;28;20036;-85
2023/01/20 06:23:46;;;;;;;26.27;12.50;;;0.70;99.90;;;;;;5053804;28;20031;-85
2023/01/20 06:26:13;;;;;;;24.88;12.77;;;0.70;99.90;;;;;;5059299;28;20044;-86
2023/01/20 06:28:39;;;;;;;26.98;13.52;;;0.70;99.90;;;;;;5091474;28;20467;-85
2023/01/20 06:31:07;;;;;;;25.67;12.25;;;0.80;99.90;;;;;;5082937;28;20053;-86
2023/01/20 06:33:34;;;;;;;26.83;12.82;;;0.60;99.90;;;;;;5077867;28;20043;-86
2023/01/20 06:36:00;;;;;;;26.52;13.27;;;2.30;99.90;;;;;;5055803;28;20131;-86
2023/01/20 06:38:29;;;;;;;27.75;13.38;;;2.20;99.90;;;;;;5098457;28;21435;-85
2023/01/20 06:41:00;;;;;;;26.55;13.00;;;0.70;99.90;;;;;;5076217;28;20063;-85
2023/01/20 06:43:28;;;;;;;24.50;13.00;;;0.70;99.90;;;;;;5093889;28;20043;-86
2023/01/20 06:46:01;;;;;;;26.10;12.35;;;0.70;99.90;;;;;;5080168;28;20115;-84
2023/01/20 06:48:28;;;;;;;26.13;12.25;;;-0.30;99.90;;;;;;5081172;28;20068;-86
2023/01/20 06:50:59;;;;;;;24.20;12.60;;;-1.00;99.90;;;;;;5068733;28;20031;-85
2023/01/20 06:53:24;;;;;;;25.45;12.32;;;0.70;99.90;;;;;;5065300;28;20451;-85
2023/01/20 06:55:55;;;;;;;25.30;12.15;;;0.70;99.90;;;;;;5078955;28;20035;-85
2023/01/20 06:58:23;;;;;;;26.20;12.88;;;0.70;99.90;;;;;;5097316;28;20123;-84
2023/01/20 07:00:50;;;;;;;24.98;12.70;;;1.10;99.90;;;;;;5083369;28;20040;-85
2023/01/20 07:03:15;;;;;;;26.73;13.07;;;2.30;99.90;;;;;;5067143;28;20071;-84
2023/01/20 07:05:41;;;;;;;26.80;14.10;;;0.70;99.90;;;;;;5065315;28;20133;-86
2023/01/20 07:08:07;;;;;;;22.95;12.18;;;0.70;99.90;;;;;;5065479;28;20147;-85
2023/01/20 07:10:32;;;;;;;24.25;12.55;;;0.80;99.90;;;;;;5080008;28;20119;-84
2023/01/20 07:12:58;;;;;;;24.77;12.88;;;0.70;99.90;;;;;;5072283;28;20484;-85
2023/01/20 07:15:24;;;;;;;25.80;13.82;;;0.70;99.90;;;;;;5047369;28;20039;-87
2023/01/20 07:17:52;;;;;;;28.25;13.80;;;0.70;99.90;;;;;;5078262;28;20036;-86
2023/01/20 07:20:18;;;;;;;28.80;14.57;;;0.70;99.90;;;;;;5090656;28;20044;-85
2023/01/20 07:22:43;;;;;;;25.70;13.75;;;0.70;99.90;;;;;;5056471;28;20537;-86
2023/01/20 07:25:09;;;;;;;29.42;14.70;;;0.70;99.90;;;;;;5065261;28;20039;-86
2023/01/20 07:30:44;;;;;;;27.30;13.20;;;0.70;99.90;;;;;;5079352;28;20047;-87
2023/01/20 07:33:26;;;;;;;28.08;14.80;;;0.70;99.90;;;;;;5080107;28;20509;-86
2023/01/20 07:36:18;;;;;;;28.25;14.63;;;0.70;99.90;;;;;;5073003;28;20505;-89
2023/01/20 07:39:18;;;;;;;;;;;;;;;;;;;;;
2023/01/20 07:41:48;;;;;;;29.67;14.50;;;0.70;99.90;;;;;;5096923;28;20043;-87
2023/01/20 07:44:50;;;;;;;26.88;13.75;;;;;;;;;;5089836;28;20043;-87
2023/01/20 07:47:18;;;;;;;28.58;14.90;;;0.70;99.90;;;;;;5081023;28;20036;-85
2023/01/20 07:49:44;;;;;;;30.30;15.05;;;0.70;99.90;;;;;;5093147;28;20494;-86
2023/01/20 07:52:10;;;;;;;29.08;14.52;;;0.70;99.90;;;;;;5073753;28;20046;-85
2023/01/20 07:54:36;;;;;;;28.52;14.38;;;;;;;;;;5077497;28;20101;-88
2023/01/20 07:57:02;;;;;;;30.10;15.50;;;0.80;99.90;;;;;;5081929;28;20036;-87
2023/01/20 07:59:28;;;;;;;29.42;15.45;;;0.80;99.90;;;;;;5079017;28;20377;-85
2023/01/20 08:02:04;;;;;;;26.17;13.70;;;0.80;99.90;;;;;;5067738;28;20044;-87
2023/01/20 08:04:31;;;;;;;27.80;14.40;;;0.80;99.90;;;;;;5078619;28;20046;-87
2023/01/20 08:06:57;;;;;;;30.50;14.18;;;2.40;99.90;;;;;;5070839;28;20043;-87
2023/01/20 08:09:30;;;;;;;31.35;14.80;;;0.80;99.90;;;;;;5079101;28;20104;-87
2023/01/20 08:11:56;;;;;;;;;;;0.80;99.90;;;;;;5080199;28;20051;-87
2023/01/20 08:14:22;;;;;;;28.80;15.48;;;0.80;99.90;;;;;;5069264;28;20297;-87
2023/01/20 08:16:47;;;;;;;29.88;15.70;;;0.80;99.90;;;;;;5074376;28;20059;-87
2023/01/20 08:19:13;;;;;;;32.17;15.55;;;2.50;99.90;;;;;;5084098;28;20128;-85
2023/01/20 08:21:39;;;;;;;31.73;16.55;;;0.90;99.90;;;;;;5050614;28;20039;-86
2023/01/20 08:24:05;;;;;;;27.50;14.88;;;2.50;99.90;;;;;;5050812;28;20593;-86
2023/01/20 08:26:32;;;;;;;32.70;16.10;;;0.90;99.90;;;;;;5081054;28;20617;-84
2023/01/20 08:29:08;;;;;;;33.47;16.02;;;0.90;99.90;;;;;;5069661;28;20131;-86
2023/01/20 08:31:37;;;;;;;29.70;16.00;;;;;;;;;;5079055;28;20032;-86
2023/01/20 08:34:29;;;;;;;31.45;16.77;;;0.90;99.90;;;;;;5081099;28;20043;-86
2023/01/20 08:36:56;;;;;;;33.85;16.48;;;;;;;;;;5082664;28;20040;-85
2023/01/20 08:39:22;;;;;;;34.65;16.23;;;1.00;99.90;;;;;;5096630;28;20236;-85
2023/01/20 08:41:49;;;;;;;33.13;16.83;;;1.00;99.90;;;;;;5077262;28;20492;-86
2023/01/20 08:44:16;;;;;;;33.17;17.33;;;;;;;;;;5079866;28;20039;-87
2023/01/20 08:46:43;;;;;;;31.88;16.50;;;1.00;99.90;;;;;;5074371;28;20051;-85
2023/01/20 08:49:12;;;;;;;32.38;16.65;;;;;;;;;;5081129;28;20039;-88
2023/01/20 08:51:41;;;;;;;34.40;17.35;;;1.00;99.90;;;;;;5077037;28;20522;-86
2023/01/20 08:54:06;;;;;;;33.30;17.35;;;1.00;99.90;;;;;;5075532;28;20048;-87
2023/01/20 08:56:35;;;;;;;30.00;16.05;;;;;;;;;;5066383;28;20046;-86
2023/01/20 08:59:02;;;;;;;31.77;15.68;;;1.00;99.90;;;;;;5094913;28;20051;-85
2023/01/20 09:01:35;;;;;;;32.60;16.85;;;1.00;99.90;;;;;;5095761;28;20040;-86
2023/01/20 09:04:02;;;;;;;35.40;17.37;;;;;;;;;;5078897;28;20048;-88
2023/01/20 09:06:42;;;;;;;33.88;17.63;;;1.10;99.90;;;;;;5075321;28;20302;-88
2023/01/20 09:09:55;;;;;;;29.40;16.35;;;1.10;99.90;;;;;;5100270;28;20050;-88
2023/01/20 09:12:31;;;;;;;32.33;17.63;;;1.10;99.90;;;;;;5097717;28;20388;-88
2023/01/20 09:15:09;;;;;;;30.08;16.10;;;1.20;99.90;;;;;;5071802;28;20294;-85
2023/01/20 09:17:35;;;;;;;31.15;17.52;;;1.10;99.90;;;;;;5079738;28;20051;-86
2023/01/20 09:20:01;;;;;;;33.95;18.10;;;1.20;99.90;;;;;;5077966;28;20048;-87
2023/01/20 09:22:43;;;;;;;34.97;17.88;;;0.90;99.90;;;;;;5052112;28;20129;-84
2023/01/20 09:25:09;;;;;;;32.10;17.58;;;1.20;99.90;;;;;;5082937;28;20071;-85
2023/01/20 09:27:35;;;;;;;35.50;17.65;;;1.30;99.90;;;;;;5087020;28;20063;-85
2023/01/20 09:30:02;;;;;;;33.63;17.83;;;1.30;99.90;;;;;;5077399;28;20524;-87
2023/01/20 09:33:06;;;;;;;;;;;;;;;;;;;;;
2023/01/20 09:36:01;;;;;;;30.90;16.73;;;1.30;99.90;;;;;;5084930;28;20365;-88
2023/01/20 09:44:30;;;;;;;36.17;17.63;;;1.30;99.90;;;;;;5101707;28;20065;-85
2023/01/20 09:47:36;;;;;;;34.03;16.95;;;1.30;99.90;;;;;;5074864;28;20043;-85
2023/01/20 09:53:34;;;;;;;32.22;16.95;;;1.30;99.90;;;;;;5098786;28;20044;-86
2023/01/20 09:56:07;;;;;;;36.45;17.90;;;1.40;99.90;;;;;;5093135;28;20135;-84
2023/01/20 09:58:48;;;;;;;32.13;16.55;;;2.60;99.90;;;;;;5076614;28;20040;-86
2023/01/20 10:01:47;;;;;;;30.30;16.92;;;1.40;99.90;;;;;;5101032;28;20647;-88
2023/01/20 10:04:19;;;;;;;33.40;16.83;;;;;;;;;;5094232;28;20043;-87
2023/01/20 10:07:13;;;;;;;37.45;18.55;;;1.50;99.90;;;;;;5074964;28;20040;-86
2023/01/20 10:10:05;;;;;;;33.65;17.33;;;1.40;99.90;;;;;;5095574;28;20032;-85
2023/01/20 10:12:47;;;;;;;36.53;18.02;;;1.50;99.90;;;;;;5066840;28;20189;-87
2023/01/20 10:15:26;;;;;;;34.13;17.77;;;1.50;99.90;;;;;;5093319;28;20389;-85
2023/01/20 10:18:04;;;;;;;34.78;17.55;;;1.50;99.90;;;;;;5094316;28;20100;-86
2023/01/20 10:20:56;;;;;;;35.50;17.67;;;1.50;99.90;;;;;;5086226;28;20482;-86
2023/01/20 10:23:43;;;;;;;36.97;17.85;;;1.50;99.90;;;;;;5102903;28;20140;-84
2023/01/20 10:26:15;;;;;;;33.88;17.02;;;1.50;99.90;;;;;;5091845;28;20052;-87
2023/01/20 10:28:50;;;;;;;36.17;18.27;;;1.50;99.90;;;;;;5078644;28;20032;-88
2023/01/20 10:31:26;;;;;;;36.58;18.38;;;1.50;99.90;;;;;;5083210;28;20035;-86
2023/01/20 10:34:18;;;;;;;35.95;18.30;;;1.60;99.90;;;;;;5080750;28;20040;-85
2023/01/20 10:36:51;;;;;;;37.78;18.90;;;1.60;99.90;;;;;;5098044;28;20039;-85
2023/01/20 10:39:40;;;;;;;36.65;18.60;;;1.70;99.90;;;;;;5073885;28;20126;-88
2023/01/20 10:42:13;;;;;;;34.33;17.95;;;1.70;99.90;;;;;;5068068;28;20048;-84
2023/01/20 10:44:48;;;;;;;34.15;18.20;;;1.60;99.90;;;;;;5072912;28;20094;-86
2023/01/20 10:47:34;;;;;;;35.65;17.98;;;1.70;99.90;;;;;;5097942;28;20036;-85
2023/01/20 10:50:18;;;;;;;33.72;17.33;;;1.70;99.90;;;;;;5074889;28;20074;-86
2023/01/20 10:52:56;;;;;;;36.05;18.00;;;1.70;99.90;;;;;;5079329;28;20043;-87
2023/01/20 10:56:01;;;;;;;33.63;18.60;;;1.80;99.90;;;;;;5079145;28;20047;-84
2023/01/20 10:58:34;;;;;;;35.05;17.90;;;1.80;99.90;;;;;;5096336;28;20075;-86
2023/01/20 11:01:07;;;;;;;38.95;19.10;;;1.70;99.90;;;;;;5073247;28;20118;-86
2023/01/20 11:03:40;;;;;;;34.50;17.85;;;1.80;99.90;;;;;;5078113;28;20048;-86
2023/01/20 11:06:35;;;;;;;35.92;18.58;;;1.70;99.90;;;;;;5097578;28;20093;-85
2023/01/20 11:09:18;;;;;;;36.75;17.98;;;1.80;99.90;;;;;;5076490;28;20056;-86
2023/01/20 11:11:44;;;;;;;36.10;17.50;;;-0.10;99.90;;;;;;5092100;28;20357;-87
2023/01/20 11:14:10;;;;;;;33.10;17.33;;;1.70;99.90;;;;;;5061626;28;20046;-85
2023/01/20 11:16:36;;;;;;;37.63;18.38;;;3.30;99.90;;;;;;5071879;28;20044;-85
2023/01/20 11:19:06;;;;;;;36.67;18.00;;;1.70;99.90;;;;;;5078869;28;20047;-85
2023/01/20 11:21:46;;;;;;;37.72;18.38;;;3.30;99.90;;;;;;5081856;28;20041;-86
2023/01/20 11:24:41;;;;;;;35.97;17.63;;;1.70;99.90;;;;;;5084513;28;20054;-87
2023/01/20 11:27:13;;;;;;;37.15;18.20;;;1.70;99.90;;;;;;5077201;28;20039;-86
2023/01/20 11:29:47;;;;;;;37.97;17.77;;;;;;;;;;5085620;28;20044;-85
2023/01/20 11:32:31;;;;;;;36.55;17.85;;;1.70;99.90;;;;;;5074419;28;21825;-86
2023/01/20 11:34:58;;;;;;;36.05;18.83;;;1.70;99.90;;;;;;5082540;28;20051;-85
2023/01/20 11:37:36;;;;;;;35.10;18.48;;;3.00;99.90;;;;;;5081519;28;20093;-86
2023/01/20 11:40:19;;;;;;;35.42;16.98;;;2.90;99.90;;;;;;5096205;28;20062;-85
2023/01/20 11:42:47;;;;;;;39.38;18.95;;;0.70;99.90;;;;;;5095374;28;20051;-86
2023/01/20 11:45:29;;;;;;;34.40;17.25;;;1.80;99.90;;;;;;5064726;28;20337;-85
2023/01/20 11:48:13;;;;;;;35.60;17.58;;;2.60;99.90;;;;;;5084225;28;20036;-86
2023/01/20 11:51:00;;;;;;;37.40;18.77;;;2.30;99.90;;;;;;5073340;28;20123;-86
2023/01/20 11:53:32;;;;;;;37.28;17.67;;;1.80;99.90;;;;;;5079267;28;20204;-86
2023/01/20 11:56:00;;;;;;;34.67;16.92;;;1.80;99.90;;;;;;5080245;28;20047;-84
2023/01/20 11:58:32;;;;;;;35.63;18.15;;;1.70;99.90;;;;;;5077647;28;20395;-86
2023/01/20 12:01:04;;;;;;;37.50;18.48;;;1.80;99.90;;;;;;5092688;28;20487;-85
2023/01/20 12:03:43;;;;;;;38.47;18.38;;;1.80;99.90;;;;;;5081293;28;20055;-86
2023/01/20 12:06:33;;;;;;;36.50;17.33;;;1.80;99.90;;;;;;5098231;28;20542;-89
2023/01/20 12:09:01;;;;;;;37.22;18.02;;;1.80;99.90;;;;;;5081679;28;20038;-86
2023/01/20 12:12:05;;;;;;;36.67;17.27;;;1.80;99.90;;;;;;5073407;28;20796;-85
2023/01/20 12:14:33;;;;;;;;;;;1.80;99.90;;;;;;5074242;28;20040;-84
2023/01/20 12:17:15;;;;;;;36.17;17.35;;;1.70;99.90;;;;;;5099166;28;19916;-88
2023/01/20 12:20:08;;;;;;;39.92;18.50;;;1.70;99.90;;;;;;5072174;28;20082;-87
2023/01/20 12:23:05;;;;;;;33.53;16.73;;;1.70;99.90;;;;;;5082685;28;20044;-89
2023/01/20 12:25:51;;;;;;;35.00;17.17;;;1.70;99.90;;;;;;5092034;28;20130;-87
2023/01/20 12:31:24;;;;;;;36.58;17.58;;;1.70;99.90;;;;;;5088342;28;20040;-86
2023/01/20 12:33:58;;;;;;;37.65;18.15;;;1.70;99.90;;;;;;5067435;28;20106;-86
2023/01/20 12:36:52;;;;;;;36.72;17.50;;;1.70;99.90;;;;;;5090087;28;20123;-85
2023/01/20 12:39:33;;;;;;;33.92;17.65;;;1.70;99.90;;;;;;5075567;28;20040;-85
2023/01/20 12:42:20;;;;;;;36.67;18.33;;;1.70;99.90;;;;;;5092351;28;20438;-86
2023/01/20 12:44:57;;;;;;;38.28;19.38;;;1.70;99.90;;;;;;5095540;28;20047;-85
2023/01/20 12:47:48;;;;;;;39.38;19.00;;;1.70;99.90;;;;;;5075762;28;20051;-87
2023/01/20 12:50:32;;;;;;;37.70;18.73;;;1.70;99.90;;;;;;5085869;28;20061;-86
2023/01/20 12:53:48;;;;;;;35.55;18.63;;;1.70;99.90;;;;;;5101335;28;20046;-84
2023/01/20 12:56:58;;;;;;;37.03;18.23;;;1.70;99.90;;;;;;5092561;28;20047;-84
2023/01/20 12:59:38;;;;;;;37.67;16.73;;;1.70;99.90;;;;;;5074923;28;20044;-88
2023/01/20 13:02:37;;;;;;;;;;;;;;;;;;;;;
2023/01/20 13:06:00;;;;;;;;;;;;;;;;;;;;;
2023/01/20 13:08:39;;;;;;;;;;;;;;;;;;;;;
2023/01/20 13:11:43;;;;;;;39.58;19.40;;;1.80;99.90;;;;;;5097729;28;20324;-87
2023/01/20 13:14:22;;;;;;;;;;;;;;;;;;;;;
2023/01/20 13:17:22;;;;;;;35.33;17.83;;;1.70;99.90;;;;;;5094152;28;20048;-87
2023/01/20 13:20:05;;;;;;;;;;;;;;;;;;;;;
2023/01/20 13:23:08;;;;;;;;;;;;;;;;;;;;;
2023/01/20 13:25:38;;;;;;;34.28;17.58;;;1.80;99.90;;;;;;5097758;28;20055;-86
2023/01/20 13:28:07;;;;;;;33.10;16.25;;;3.30;99.90;;;;;;5081689;28;20092;-86
2023/01/20 13:30:38;;;;;;;35.95;17.17;;;;;;;;;;5098203;28;20032;-86
2023/01/20 13:33:35;;;;;;;32.15;16.33;;;1.80;99.90;;;;;;5099280;28;20043;-86
2023/01/20 13:36:20;;;;;;;36.13;17.67;;;1.80;99.90;;;;;;5069507;28;20051;-86
2023/01/20 13:39:07;;;;;;;34.55;17.77;;;1.80;99.90;;;;;;5073651;28;20046;-88
2023/01/20 13:43:19;;;;;;;;;;;;;;;;;;;;;
2023/01/20 13:45:21;;;;;;;34.63;17.65;;;0.40;99.90;;;;;;5022834;28;20224;-85